createdAt,value
2018-12-14T00:01:08.130Z,6.47
2018-12-14T00:03:36.255Z,5.63
2018-12-14T00:06:04.202Z,6.37
2018-12-14T00:08:32.259Z,6.30
2018-12-14T00:11:00.820Z,5.67
2018-12-14T00:13:28.924Z,6.90
2018-12-14T00:15:56.900Z,6.93
2018-12-14T00:18:24.863Z,5.67
2018-12-14T00:20:52.820Z,6.13
2018-12-14T00:23:20.804Z,5.97
2018-12-14T00:25:48.757Z,6.30
2018-12-14T00:28:16.709Z,6.10
2018-12-14T00:30:44.768Z,5.63
2018-12-14T00:33:12.784Z,6.93
2018-12-14T00:35:40.971Z,5.80
2018-12-14T00:38:09.053Z,5.90
2018-12-14T00:40:37.100Z,5.87
2018-12-14T00:43:05.067Z,5.83
2018-12-14T00:45:33.161Z,6.77
2018-12-14T00:48:01.209Z,5.57
2018-12-14T00:50:29.149Z,6.53
2018-12-14T00:52:57.130Z,6.10
2018-12-14T00:55:25.169Z,6.30
2018-12-14T00:57:53.128Z,6.07
2018-12-14T01:00:21.175Z,6.03
2018-12-14T01:21:50.803Z,5.53
2018-12-14T01:24:18.781Z,5.50
2018-12-14T01:26:46.748Z,5.63
2018-12-14T01:29:14.717Z,5.73
2018-12-14T01:48:24.313Z,6.10
2018-12-14T01:50:52.459Z,6.13
2018-12-14T01:53:20.415Z,6.50
2018-12-14T01:55:48.371Z,5.80
2018-12-14T01:58:16.436Z,5.97
2018-12-14T02:00:44.420Z,6.07
2018-12-14T02:22:13.990Z,6.33
2018-12-14T02:24:41.945Z,6.43
2018-12-14T02:27:10.000Z,6.73
2018-12-14T02:29:38.063Z,6.67
2018-12-14T02:48:48.301Z,5.87
2018-12-14T02:54:38.781Z,6.07
2018-12-14T02:57:06.731Z,6.87
2018-12-14T02:59:34.698Z,6.33
2018-12-14T03:02:12.588Z,6.73
2018-12-14T03:04:40.549Z,6.43
2018-12-14T03:07:08.513Z,6.80
2018-12-14T03:09:36.564Z,6.47
2018-12-14T03:12:04.524Z,6.73
2018-12-14T03:14:32.523Z,6.50
2018-12-14T03:17:00.658Z,6.80
2018-12-14T03:19:28.620Z,5.80
2018-12-14T03:21:56.620Z,5.77
2018-12-14T03:24:24.613Z,6.40
2018-12-14T03:26:52.578Z,5.73
2018-12-14T03:29:20.533Z,5.83
2018-12-14T03:31:48.698Z,6.20
2018-12-14T03:34:16.708Z,6.20
2018-12-14T03:36:44.707Z,5.67
2018-12-14T03:39:12.833Z,5.27
2018-12-14T03:41:40.809Z,5.60
2018-12-14T03:44:08.789Z,5.67
2018-12-14T03:46:36.860Z,6.37
2018-12-14T03:49:04.807Z,6.40
2018-12-14T03:51:32.764Z,7.00
2018-12-14T03:54:00.748Z,5.90
2018-12-14T03:56:28.759Z,5.70
2018-12-14T03:58:56.678Z,6.40
2018-12-14T04:01:29.653Z,6.63
2018-12-14T04:03:57.616Z,5.80
2018-12-14T04:06:25.668Z,5.70
2018-12-14T04:08:53.819Z,6.37
2018-12-14T04:11:21.780Z,5.83
2018-12-14T04:13:49.725Z,6.33
2018-12-14T04:16:17.872Z,5.97
2018-12-14T04:18:45.829Z,6.27
2018-12-14T04:21:13.786Z,6.53
2018-12-14T04:23:41.928Z,6.43
2018-12-14T04:26:09.874Z,5.87
2018-12-14T04:28:37.814Z,6.87
2018-12-14T04:31:05.976Z,6.13
2018-12-14T04:33:34.121Z,6.60
2018-12-14T04:36:02.179Z,5.87
2018-12-14T04:38:30.321Z,6.20
2018-12-14T04:40:58.268Z,5.93
2018-12-14T04:43:26.314Z,6.03
2018-12-14T04:45:54.397Z,6.67
2018-12-14T04:48:22.360Z,6.23
2018-12-14T04:50:50.305Z,6.67
2018-12-14T04:53:18.465Z,6.80
2018-12-14T04:55:46.450Z,6.27
2018-12-14T04:58:14.464Z,6.40
2018-12-14T05:00:42.438Z,6.87
2018-12-14T05:03:10.491Z,7.07
2018-12-14T05:05:38.454Z,7.50
2018-12-14T05:08:06.424Z,7.10
2018-12-14T05:10:34.386Z,7.13
2018-12-14T05:13:02.346Z,7.17
2018-12-14T05:15:30.510Z,7.17
2018-12-14T05:17:58.539Z,7.00
2018-12-14T05:20:26.514Z,7.13
2018-12-14T05:22:54.584Z,7.40
2018-12-14T05:25:22.565Z,6.60
2018-12-14T05:27:50.525Z,6.87
2018-12-14T05:30:18.736Z,7.30
2018-12-14T05:32:46.700Z,6.60
2018-12-14T05:35:14.700Z,6.53
2018-12-14T05:37:42.739Z,6.80
2018-12-14T05:40:10.756Z,6.73
2018-12-14T05:42:38.701Z,7.03
2018-12-14T05:45:06.741Z,7.83
2018-12-14T05:47:34.700Z,8.60
2018-12-14T05:50:02.702Z,7.00
2018-12-14T05:52:30.675Z,7.60
2018-12-14T05:54:58.628Z,7.27
2018-12-14T05:57:26.588Z,7.20
2018-12-14T05:59:54.595Z,7.57
2018-12-14T06:02:22.680Z,7.10
2018-12-14T06:04:50.641Z,7.00
2018-12-14T06:07:18.633Z,7.40
2018-12-14T06:09:46.601Z,6.97
2018-12-14T06:12:14.663Z,7.33
2018-12-14T06:14:42.665Z,6.43
2018-12-14T06:17:10.623Z,6.90
2018-12-14T06:19:38.573Z,7.07
2018-12-14T06:22:06.620Z,6.50
2018-12-14T06:24:34.589Z,7.03
2018-12-14T06:27:02.595Z,6.73
2018-12-14T06:29:30.656Z,6.67
2018-12-14T06:31:58.620Z,7.37
2018-12-14T06:34:26.580Z,7.77
2018-12-14T06:36:55.379Z,7.73
2018-12-14T06:39:23.380Z,6.60
2018-12-14T06:41:51.648Z,7.40
2018-12-14T06:44:19.712Z,7.37
2018-12-14T06:46:47.664Z,6.77
2018-12-14T06:49:15.732Z,8.10
2018-12-14T06:51:43.801Z,7.53
2018-12-14T06:54:11.749Z,7.17
2018-12-14T06:56:39.788Z,7.70
2018-12-14T06:59:07.892Z,7.37
2018-12-14T07:01:35.837Z,6.93
2018-12-14T07:04:03.868Z,7.67
2018-12-14T07:06:31.850Z,7.80
2018-12-14T07:08:59.865Z,6.87
2018-12-14T07:11:27.808Z,6.07
2018-12-14T07:13:55.888Z,7.10
2018-12-14T07:16:23.836Z,7.30
2018-12-14T07:18:51.800Z,7.37
2018-12-14T07:21:19.868Z,6.80
2018-12-14T07:23:47.828Z,7.63
2018-12-14T07:26:15.812Z,7.23
2018-12-14T07:28:43.892Z,7.63
2018-12-14T07:31:11.876Z,7.27
2018-12-14T07:33:39.828Z,6.40
2018-12-14T07:36:08.125Z,6.63
2018-12-14T07:38:36.165Z,7.03
2018-12-14T07:41:04.229Z,7.83
2018-12-14T07:43:32.292Z,7.03
2018-12-14T07:46:00.241Z,7.30
2018-12-14T07:48:28.192Z,7.13
2018-12-14T07:50:56.276Z,6.67
2018-12-14T07:53:24.259Z,6.80
2018-12-14T07:55:52.208Z,6.67
2018-12-14T07:58:20.463Z,6.30
2018-12-14T08:00:48.464Z,7.57
2018-12-14T08:03:16.514Z,6.70
2018-12-14T08:05:44.512Z,6.50
2018-12-14T08:08:12.454Z,6.27
2018-12-14T08:10:40.487Z,6.80
2018-12-14T08:13:08.702Z,6.27
2018-12-14T08:15:36.758Z,7.10
2018-12-14T08:18:04.712Z,7.17
2018-12-14T08:20:32.749Z,7.87
2018-12-14T08:23:00.703Z,7.67
2018-12-14T08:25:28.660Z,7.70
2018-12-14T08:27:56.650Z,7.73
2018-12-14T08:30:24.746Z,6.90
2018-12-14T08:32:52.709Z,7.13
2018-12-14T08:35:20.689Z,7.13
2018-12-14T08:37:48.649Z,6.83
2018-12-14T08:40:16.645Z,7.03
2018-12-14T08:42:44.629Z,7.40
2018-12-14T08:45:12.673Z,7.07
2018-12-14T08:47:40.680Z,7.47
2018-12-14T08:50:08.716Z,8.07
2018-12-14T08:52:36.721Z,7.47
2018-12-14T08:55:05.258Z,7.53
2018-12-14T08:57:33.403Z,8.20
2018-12-14T09:00:01.481Z,7.10
2018-12-14T09:02:29.492Z,8.07
2018-12-14T09:04:57.508Z,7.60
2018-12-14T09:07:25.566Z,7.47
2018-12-14T09:09:53.520Z,7.43
2018-12-14T09:12:21.549Z,8.37
2018-12-14T09:14:49.589Z,7.33
2018-12-14T09:17:17.645Z,7.50
2018-12-14T09:19:45.693Z,7.97
2018-12-14T09:22:13.677Z,7.37
2018-12-14T09:24:41.716Z,7.63
2018-12-14T09:27:09.703Z,7.03
2018-12-14T09:29:37.647Z,6.87
2018-12-14T09:32:05.639Z,7.73
2018-12-14T09:34:33.720Z,7.00
2018-12-14T09:37:01.680Z,7.77
2018-12-14T09:39:29.719Z,6.83
2018-12-14T09:41:57.715Z,7.00
2018-12-14T09:44:25.669Z,7.40
2018-12-14T09:46:53.800Z,7.37
2018-12-14T09:49:21.917Z,7.23
2018-12-14T09:51:54.786Z,7.53
2018-12-14T09:54:22.816Z,6.87
2018-12-14T09:56:50.780Z,7.60
2018-12-14T09:59:18.719Z,7.43
2018-12-14T10:01:46.705Z,6.70
2018-12-14T10:04:14.665Z,7.37
2018-12-14T10:06:42.677Z,8.10
2018-12-14T10:09:10.652Z,7.93
2018-12-14T10:11:38.703Z,7.80
2018-12-14T10:14:06.668Z,7.77
2018-12-14T10:16:34.772Z,8.40
2018-12-14T10:19:02.964Z,7.33
2018-12-14T10:21:30.928Z,7.30
2018-12-14T10:23:58.984Z,7.30
2018-12-14T10:26:26.953Z,7.37
2018-12-14T10:28:54.909Z,7.70
2018-12-14T10:31:22.901Z,8.03
2018-12-14T10:33:50.856Z,7.10
2018-12-14T10:36:18.824Z,7.70
2018-12-14T10:38:46.804Z,7.60
2018-12-14T10:41:14.756Z,7.33
2018-12-14T10:43:42.716Z,7.17
2018-12-14T10:46:10.732Z,6.90
2018-12-14T10:48:38.685Z,7.00
2018-12-14T10:51:06.633Z,7.57
2018-12-14T10:53:34.693Z,6.93
2018-12-14T10:56:02.649Z,7.20
2018-12-14T10:58:30.644Z,7.90
2018-12-14T11:01:04.250Z,6.90
2018-12-14T11:03:32.209Z,6.80
2018-12-14T11:06:00.163Z,7.00
2018-12-14T11:08:28.187Z,7.60
2018-12-14T11:10:56.136Z,6.90
2018-12-14T11:13:24.939Z,6.80
2018-12-14T11:15:52.924Z,7.83
2018-12-14T11:18:20.884Z,7.40
2018-12-14T11:20:48.839Z,7.70
2018-12-14T11:23:16.913Z,8.30
2018-12-14T11:25:44.875Z,6.03
2018-12-14T11:28:12.837Z,7.67
2018-12-14T11:30:40.830Z,7.47
2018-12-14T11:33:08.798Z,8.20
2018-12-14T11:35:36.759Z,8.07
2018-12-14T11:38:04.744Z,8.37
2018-12-14T11:40:32.700Z,8.77
2018-12-14T11:43:00.661Z,7.80
2018-12-14T11:45:28.704Z,7.93
2018-12-14T11:47:56.695Z,7.27
2018-12-14T11:50:24.819Z,8.10
2018-12-14T11:52:52.881Z,7.60
2018-12-14T11:55:20.854Z,7.80
2018-12-14T11:57:48.814Z,7.80
2018-12-14T12:00:16.805Z,7.63
2018-12-14T12:02:44.760Z,8.10
2018-12-14T12:05:12.719Z,7.30
2018-12-14T12:07:41.774Z,7.63
2018-12-14T12:10:09.771Z,8.30
2018-12-14T12:12:37.869Z,7.93
2018-12-14T12:15:05.899Z,7.37
2018-12-14T12:17:34.689Z,7.73
2018-12-14T12:20:03.089Z,7.37
2018-12-14T12:22:31.072Z,7.03
2018-12-14T12:24:59.021Z,7.33
2018-12-14T12:27:27.120Z,7.60
2018-12-14T12:29:55.184Z,7.37
2018-12-14T12:32:23.149Z,7.47
2018-12-14T12:34:51.113Z,7.50
2018-12-14T12:37:19.097Z,8.33
2018-12-14T12:39:47.083Z,7.47
2018-12-14T12:42:15.039Z,7.77
2018-12-14T12:44:43.034Z,7.93
2018-12-14T12:47:10.991Z,8.13
2018-12-14T12:49:38.928Z,8.17
2018-12-14T12:52:07.056Z,7.97
2018-12-14T12:54:35.003Z,9.10
2018-12-14T12:57:02.961Z,8.77
2018-12-14T12:59:31.081Z,8.30
2018-12-14T13:01:59.085Z,9.27
2018-12-14T13:04:27.079Z,8.50
2018-12-14T13:06:55.148Z,8.33
2018-12-14T13:09:23.104Z,9.03
2018-12-14T13:11:51.121Z,8.93
2018-12-14T13:14:19.134Z,8.70
2018-12-14T13:16:47.127Z,9.03
2018-12-14T13:19:15.078Z,10.37
2018-12-14T13:21:43.144Z,8.57
2018-12-14T13:24:11.097Z,8.43
2018-12-14T13:26:39.051Z,8.73
2018-12-14T13:29:07.121Z,8.83
2018-12-14T13:31:35.093Z,9.67
2018-12-14T13:34:03.099Z,9.10
2018-12-14T13:36:31.076Z,8.47
2018-12-14T13:38:59.038Z,9.20
2018-12-14T13:41:27.095Z,8.63
2018-12-14T13:43:55.214Z,8.80
2018-12-14T13:46:23.198Z,8.60
2018-12-14T13:48:51.153Z,9.13
2018-12-14T13:51:19.407Z,9.13
2018-12-14T13:53:47.499Z,9.10
2018-12-14T13:56:15.424Z,8.80
2018-12-14T13:58:43.504Z,8.00
2018-12-14T14:01:11.535Z,8.53
2018-12-14T14:03:39.500Z,8.47
2018-12-14T14:06:07.580Z,9.07
2018-12-14T14:08:35.545Z,9.80
2018-12-14T14:11:03.503Z,9.93
2018-12-14T14:13:31.548Z,12.13
2018-12-14T14:15:59.564Z,9.33
2018-12-14T14:18:27.576Z,10.93
2018-12-14T14:20:55.604Z,10.43
2018-12-14T14:23:23.654Z,10.90
2018-12-14T14:25:51.624Z,9.67
2018-12-14T14:28:19.609Z,9.57
2018-12-14T14:30:47.573Z,10.43
2018-12-14T14:33:15.567Z,9.93
2018-12-14T14:35:43.753Z,9.97
2018-12-14T14:38:11.710Z,10.20
2018-12-14T14:40:39.677Z,10.43
2018-12-14T14:43:07.669Z,11.20
2018-12-14T14:45:35.620Z,10.07
2018-12-14T14:48:03.733Z,11.00
2018-12-14T14:50:31.711Z,13.77
2018-12-14T14:52:59.668Z,11.50
2018-12-14T14:55:27.731Z,10.60
2018-12-14T14:57:55.840Z,11.47
2018-12-14T15:00:23.833Z,10.13
2018-12-14T15:02:51.919Z,9.70
2018-12-14T15:05:19.917Z,10.30
2018-12-14T15:07:47.880Z,10.20
2018-12-14T15:10:15.840Z,10.47
2018-12-14T15:12:43.832Z,10.23
2018-12-14T15:15:11.788Z,10.73
2018-12-14T15:17:39.824Z,10.90
2018-12-14T15:20:07.895Z,11.57
2018-12-14T15:22:35.864Z,10.90
2018-12-14T15:25:03.900Z,12.03
2018-12-14T15:27:31.967Z,11.67
2018-12-14T15:29:59.928Z,12.60
2018-12-14T15:32:28.127Z,10.40
2018-12-14T15:34:56.124Z,10.73
2018-12-14T15:37:24.073Z,11.10
2018-12-14T15:39:52.030Z,10.37
2018-12-14T15:42:20.131Z,10.27
2018-12-14T15:44:48.149Z,10.23
2018-12-14T15:47:16.240Z,10.40
2018-12-14T15:49:44.399Z,11.80
2018-12-14T15:52:12.355Z,11.93
2018-12-14T15:54:40.325Z,11.97
2018-12-14T15:57:08.411Z,11.63
2018-12-14T15:59:36.346Z,12.57
2018-12-14T16:02:04.400Z,11.90
2018-12-14T16:04:32.400Z,11.33
2018-12-14T16:07:00.386Z,11.57
2018-12-14T16:09:28.412Z,11.70
2018-12-14T16:11:56.467Z,12.07
2018-12-14T16:14:24.428Z,14.30
2018-12-14T16:16:52.439Z,13.17
2018-12-14T16:19:20.456Z,13.13
2018-12-14T16:21:48.490Z,12.97
2018-12-14T16:24:16.436Z,14.20
2018-12-14T16:26:45.172Z,13.20
2018-12-14T16:29:13.192Z,13.50
2018-12-14T16:31:41.174Z,13.57
2018-12-14T16:34:09.244Z,13.30
2018-12-14T16:36:37.268Z,12.57
2018-12-14T16:39:05.573Z,14.17
2018-12-14T16:41:33.560Z,13.20
2018-12-14T16:44:01.529Z,13.53
2018-12-14T16:46:29.476Z,12.57
2018-12-14T16:48:57.630Z,12.20
2018-12-14T16:51:30.509Z,14.77
2018-12-14T16:54:00.952Z,14.63
2018-12-14T16:56:28.933Z,14.07
2018-12-14T16:58:56.951Z,15.70
2018-12-14T17:01:24.941Z,14.57
2018-12-14T17:03:52.953Z,13.80
2018-12-14T17:06:20.949Z,14.03
2018-12-14T17:08:48.963Z,13.27
2018-12-14T17:11:16.980Z,14.07
2018-12-14T17:13:44.940Z,12.83
2018-12-14T17:16:12.959Z,12.87
2018-12-14T17:18:40.925Z,12.77
2018-12-14T17:21:09.665Z,13.27
2018-12-14T17:23:37.803Z,15.17
2018-12-14T17:26:05.765Z,14.70
2018-12-14T17:28:33.734Z,13.57
2018-12-14T17:31:01.719Z,15.70
2018-12-14T17:33:35.901Z,15.47
2018-12-14T17:35:59.608Z,15.40
2018-12-14T17:38:27.596Z,13.90
2018-12-14T17:40:55.557Z,14.80
2018-12-14T17:43:23.508Z,16.00
2018-12-14T17:45:51.577Z,13.83
2018-12-14T17:48:19.591Z,13.47
2018-12-14T17:50:47.553Z,13.77
2018-12-14T17:53:15.538Z,14.20
2018-12-14T17:55:43.505Z,16.10
2018-12-14T17:58:11.512Z,14.77
2018-12-14T18:00:39.518Z,15.63
2018-12-14T18:03:07.477Z,15.00
2018-12-14T18:05:35.432Z,14.13
2018-12-14T18:08:03.463Z,14.33
2018-12-14T18:10:31.463Z,14.37
2018-12-14T18:12:59.434Z,15.17
2018-12-14T18:15:27.419Z,13.53
2018-12-14T18:17:55.380Z,14.03
2018-12-14T18:20:23.342Z,14.20
2018-12-14T18:22:51.464Z,13.37
2018-12-14T18:25:19.589Z,14.13
2018-12-14T18:27:47.541Z,12.27
2018-12-14T18:30:15.588Z,13.60
2018-12-14T18:32:43.570Z,13.57
2018-12-14T18:35:11.595Z,12.93
2018-12-14T18:37:39.576Z,14.97
2018-12-14T18:40:07.576Z,14.03
2018-12-14T18:42:35.544Z,13.80
2018-12-14T18:45:03.898Z,12.47
2018-12-14T18:47:32.506Z,13.77
2018-12-14T18:50:00.456Z,12.60
2018-12-14T18:52:28.444Z,13.17
2018-12-14T18:54:56.505Z,13.13
2018-12-14T18:57:24.484Z,12.67
2018-12-14T18:59:52.476Z,13.93
2018-12-14T19:02:20.441Z,13.03
2018-12-14T19:04:48.403Z,11.03
2018-12-14T19:07:16.484Z,12.63
2018-12-14T19:09:44.520Z,13.03
2018-12-14T19:12:12.485Z,13.43
2018-12-14T19:14:40.541Z,12.13
2018-12-14T19:17:08.589Z,13.33
2018-12-14T19:19:36.588Z,13.37
2018-12-14T19:22:04.668Z,12.97
2018-12-14T19:24:32.631Z,11.90
2018-12-14T19:27:00.577Z,12.23
2018-12-14T19:29:28.649Z,12.57
2018-12-14T19:31:56.668Z,11.83
2018-12-14T19:34:31.173Z,12.10
2018-12-14T19:36:54.600Z,11.67
2018-12-14T19:39:22.595Z,11.13
2018-12-14T19:41:50.609Z,11.77
2018-12-14T19:44:18.602Z,10.70
2018-12-14T19:46:46.613Z,11.17
2018-12-14T19:49:14.576Z,11.63
2018-12-14T19:51:42.604Z,10.03
2018-12-14T19:54:10.563Z,10.60
2018-12-14T19:56:38.573Z,10.60
2018-12-14T19:59:06.601Z,10.17
2018-12-14T20:01:34.585Z,9.57
2018-12-14T20:04:02.529Z,9.83
2018-12-14T20:06:30.696Z,9.80
2018-12-14T20:08:58.647Z,10.23
2018-12-14T20:11:26.584Z,9.50
2018-12-14T20:13:54.652Z,10.57
2018-12-14T20:16:22.613Z,10.63
2018-12-14T20:18:50.659Z,11.03
2018-12-14T20:21:18.724Z,9.40
2018-12-14T20:23:46.689Z,10.33
2018-12-14T20:26:14.644Z,10.37
2018-12-14T20:28:42.739Z,10.47
2018-12-14T20:31:10.765Z,10.10
2018-12-14T20:33:38.716Z,10.40
2018-12-14T20:36:06.805Z,9.77
2018-12-14T20:38:34.758Z,9.93
2018-12-14T20:41:02.716Z,9.47
2018-12-14T20:43:30.775Z,10.43
2018-12-14T20:45:58.740Z,10.47
2018-12-14T20:48:26.691Z,10.87
2018-12-14T20:50:54.688Z,10.27
2018-12-14T20:53:22.652Z,10.00
2018-12-14T20:55:50.619Z,11.27
2018-12-14T20:58:18.692Z,10.53
2018-12-14T21:00:46.665Z,10.50
2018-12-14T21:03:14.665Z,10.60
2018-12-14T21:05:42.750Z,11.27
2018-12-14T21:08:10.711Z,11.37
2018-12-14T21:10:38.689Z,11.60
2018-12-14T21:13:06.686Z,10.10
2018-12-14T21:15:34.649Z,11.20
2018-12-14T21:18:02.700Z,11.47
2018-12-14T21:20:30.697Z,10.90
2018-12-14T21:22:58.661Z,11.10
2018-12-14T21:25:26.751Z,11.23
2018-12-14T21:27:54.740Z,11.10
2018-12-14T21:30:22.747Z,10.93
2018-12-14T21:32:50.703Z,10.37
2018-12-14T21:35:18.777Z,9.77
2018-12-14T21:37:46.737Z,11.73
2018-12-14T21:40:14.749Z,10.83
2018-12-14T21:42:42.741Z,10.40
2018-12-14T21:45:10.744Z,11.07
2018-12-14T21:47:38.720Z,11.60
2018-12-14T21:50:06.836Z,10.87
2018-12-14T21:52:34.784Z,10.80
2018-12-14T21:55:02.887Z,10.37
2018-12-14T21:57:31.180Z,11.43
2018-12-14T21:59:59.139Z,11.60
2018-12-14T22:02:27.103Z,11.40
2018-12-14T22:04:55.189Z,10.10
2018-12-14T22:07:24.451Z,10.90
2018-12-14T22:09:55.025Z,11.00
2018-12-14T22:12:28.697Z,9.83
2018-12-14T22:14:56.760Z,10.43
2018-12-14T22:17:26.637Z,11.50
2018-12-14T22:19:57.285Z,10.47
2018-12-14T22:22:30.132Z,11.00
2018-12-14T22:24:58.193Z,11.17
2018-12-14T22:27:29.692Z,10.63
2018-12-14T22:29:59.774Z,11.27
2018-12-14T22:32:29.751Z,10.77
2018-12-14T22:34:59.445Z,10.77
2018-12-14T22:37:29.661Z,11.33
2018-12-14T22:39:58.917Z,11.47
2018-12-14T22:42:28.040Z,11.20
2018-12-14T22:44:57.325Z,11.17
2018-12-14T22:47:26.035Z,10.73
2018-12-14T22:49:53.976Z,10.10
2018-12-14T22:52:22.302Z,11.17
2018-12-14T22:54:50.352Z,10.87
2018-12-14T22:57:18.308Z,10.47
2018-12-14T22:59:46.397Z,11.03
2018-12-14T23:02:14.359Z,11.70
2018-12-14T23:04:42.309Z,11.83
2018-12-14T23:07:10.390Z,11.47
2018-12-14T23:09:38.440Z,9.53
2018-12-14T23:12:06.404Z,10.90
2018-12-14T23:14:34.516Z,10.97
2018-12-14T23:17:02.444Z,10.80
2018-12-14T23:19:30.414Z,11.73
2018-12-14T23:21:58.413Z,10.63
2018-12-14T23:24:26.381Z,10.47
2018-12-14T23:26:54.342Z,11.53
2018-12-14T23:29:22.318Z,11.23
2018-12-14T23:31:50.380Z,11.03
2018-12-14T23:34:18.348Z,10.57
2018-12-14T23:36:46.339Z,11.53
2018-12-14T23:39:14.563Z,11.33
2018-12-14T23:41:42.525Z,11.40
2018-12-14T23:44:10.520Z,11.63
2018-12-14T23:46:38.564Z,11.10
2018-12-14T23:49:06.536Z,10.57
2018-12-14T23:51:34.701Z,11.20
2018-12-14T23:54:02.796Z,10.13
2018-12-14T23:56:30.764Z,10.47
2018-12-14T23:58:58.762Z,11.93
